Time;durP1;ratioP1;P1;durP2;ratioP2;P2;SDS_P1;SDS_P2;PMS_P1;PMS_P2;Temp;Humidity;BMP_temperature;BMP_pressure;BME280_temperature;BME280_humidity;BME280_pressure;Samples;Min_cycle;Max_cycle;Signal;HPM_P1;HPM_P2
2022/07/08 00:01:55;;;;;;;1.95;1.27;;;;;;;;;;5070193;28;20724;-65
2022/07/08 00:04:22;;;;;;;0.93;0.93;;;;;;;;;;5070508;28;20206;-65
2022/07/08 00:06:49;;;;;;;2.05;0.70;;;;;;;;;;5071925;28;20199;-66
2022/07/08 00:09:16;;;;;;;3.20;1.00;;;;;;;;;;5070377;28;20218;-65
2022/07/08 00:11:43;;;;;;;2.25;0.70;;;;;;;;;;5070341;28;20889;-65
2022/07/08 00:14:11;;;;;;;1.30;0.63;;;;;;;;;;5068933;28;20202;-65
2022/07/08 00:16:43;;;;;;;2.47;0.70;;;;;;;;;;5067898;28;21014;-65
2022/07/08 00:19:11;;;;;;;6.57;1.30;;;;;;;;;;5067641;28;20210;-66
2022/07/08 00:21:38;;;;;;;0.65;0.65;;;;;;;;;;5071079;28;20222;-65
2022/07/08 00:24:05;;;;;;;0.80;0.63;;;;;;;;;;5070019;28;20742;-65
2022/07/08 00:26:32;;;;;;;2.50;0.77;;;;;;;;;;5070672;28;20683;-65
2022/07/08 00:28:59;;;;;;;0.63;0.60;;;;;;;;;;5068666;28;20203;-66
2022/07/08 00:31:26;;;;;;;1.35;0.95;;;;;;;;;;5067641;28;20210;-66
2022/07/08 00:33:54;;;;;;;1.33;0.90;;;;;;;;;;5070866;28;20716;-66
2022/07/08 00:36:21;;;;;;;1.20;0.80;;;;;;;;;;5069668;28;20227;-66
2022/07/08 00:38:48;;;;;;;2.33;0.82;;;;;;;;;;5068671;28;20217;-65
2022/07/08 00:41:16;;;;;;;1.50;0.88;;;;;;;;;;5070143;28;20199;-66
2022/07/08 00:43:44;;;;;;;0.70;0.68;;;;;;;;;;5067823;28;20206;-66
2022/07/08 00:46:11;;;;;;;2.83;1.13;;;;;;;;;;5068875;28;20234;-66
2022/07/08 00:48:39;;;;;;;3.05;0.80;;;;;;;;;;5080238;28;20233;-66
2022/07/08 00:51:08;;;;;;;1.30;0.80;;;;;;;;;;5076841;28;20214;-65
2022/07/08 00:53:35;;;;;;;1.58;0.75;;;;;;;;;;5079966;28;20284;-66
2022/07/08 00:56:03;;;;;;;0.95;0.57;;;;;;;;;;5078160;28;20227;-66
2022/07/08 00:58:30;;;;;;;2.13;0.77;;;;;;;;;;5076214;28;20199;-66
2022/07/08 01:00:57;;;;;;;1.58;0.90;;;;;;;;;;5072433;28;20726;-66
2022/07/08 01:03:24;;;;;;;2.45;0.90;;;;;;;;;;5070228;28;20669;-66
2022/07/08 01:05:51;;;;;;;0.82;0.55;;;;;;;;;;5068713;28;20211;-65
2022/07/08 01:08:19;;;;;;;1.95;0.77;;;;;;;;;;5069423;28;20573;-66
2022/07/08 01:10:46;;;;;;;1.90;0.70;;;;;;;;;;5069066;28;20252;-66
2022/07/08 01:13:14;;;;;;;2.58;0.90;;;;;;;;;;5069638;28;20256;-66
2022/07/08 01:15:41;;;;;;;1.60;0.95;;;;;;;;;;5069914;28;20680;-66
2022/07/08 01:18:08;;;;;;;1.13;0.60;;;;;;;;;;5069115;28;20226;-67
2022/07/08 01:20:40;;;;;;;1.98;0.77;;;;;;;;;;5069781;28;20249;-66
2022/07/08 01:23:07;;;;;;;1.95;0.70;;;;;;;;;;5061388;28;20226;-66
2022/07/08 01:25:34;;;;;;;3.42;0.90;;;;;;;;;;5068768;28;20280;-66
2022/07/08 01:28:01;;;;;;;0.80;0.80;;;;;;;;;;5069480;28;20256;-66
2022/07/08 01:30:28;;;;;;;1.67;1.02;;;;;;;;;;5069434;28;20206;-66
2022/07/08 01:32:55;;;;;;;3.40;1.05;;;;;;;;;;5069126;28;20223;-66
2022/07/08 01:35:22;;;;;;;1.42;0.98;;;;;;;;;;5069265;28;20199;-66
2022/07/08 01:37:51;;;;;;;3.47;0.80;;;;;;;;;;5068852;28;20253;-66
2022/07/08 01:40:18;;;;;;;0.95;0.95;;;;;;;;;;5069687;28;20198;-66
2022/07/08 01:42:45;;;;;;;0.85;0.60;;;;;;;;;;5069272;28;20211;-67
2022/07/08 01:45:12;;;;;;;0.82;0.80;;;;;;;;;;5069659;28;20235;-67
2022/07/08 01:47:39;;;;;;;0.68;0.55;;;;;;;;;;5069266;28;20264;-66
2022/07/08 01:50:06;;;;;;;1.90;0.70;;;;;;;;;;5069186;28;20211;-67
2022/07/08 01:52:33;;;;;;;2.85;1.17;;;;;;;;;;5067924;28;20612;-66
2022/07/08 01:55:02;;;;;;;3.65;0.73;;;;;;;;;;5049845;28;20231;-66
2022/07/08 01:57:29;;;;;;;3.50;0.95;;;;;;;;;;5055317;28;20269;-66
2022/07/08 01:59:56;;;;;;;2.83;0.70;;;;;;;;;;5056094;28;20212;-67
2022/07/08 02:02:23;;;;;;;0.60;0.60;;;;;;;;;;5068415;28;20211;-67
2022/07/08 02:04:50;;;;;;;3.50;0.90;;;;;;;;;;5069715;28;20271;-66
2022/07/08 02:07:17;;;;;;;1.73;0.70;;;;;;;;;;5068309;28;20215;-67
2022/07/08 02:09:44;;;;;;;2.33;0.70;;;;;;;;;;5068773;28;20211;-67
2022/07/08 02:12:21;;;;;;;1.10;0.80;;;;;;;;;;5069011;28;20210;-67
2022/07/08 02:14:48;;;;;;;5.13;1.08;;;;;;;;;;5069327;28;20199;-66
2022/07/08 02:17:16;;;;;;;2.78;0.70;;;;;;;;;;5068626;28;20218;-66
2022/07/08 02:19:44;;;;;;;1.15;0.80;;;;;;;;;;5068727;28;20207;-66
2022/07/08 02:22:11;;;;;;;5.68;1.13;;;;;;;;;;5068529;28;20252;-66
2022/07/08 02:24:38;;;;;;;1.05;0.82;;;;;;;;;;5067815;28;20856;-66
2022/07/08 02:27:06;;;;;;;1.27;0.80;;;;;;;;;;5067872;28;20718;-67
2022/07/08 02:29:34;;;;;;;2.80;0.80;;;;;;;;;;5066841;28;20198;-66
2022/07/08 02:32:01;;;;;;;0.95;0.82;;;;;;;;;;5068153;28;20225;-66
2022/07/08 02:34:29;;;;;;;1.45;0.98;;;;;;;;;;5068172;28;20203;-67
2022/07/08 02:36:56;;;;;;;1.25;0.90;;;;;;;;;;5066358;28;20652;-67
2022/07/08 02:39:24;;;;;;;1.05;0.88;;;;;;;;;;5068159;28;20207;-66
2022/07/08 02:41:51;;;;;;;5.07;0.93;;;;;;;;;;5068332;28;20215;-67
2022/07/08 02:44:18;;;;;;;2.50;1.02;;;;;;;;;;5067479;28;20194;-67
2022/07/08 02:46:47;;;;;;;0.70;0.70;;;;;;;;;;5065075;28;20234;-67
2022/07/08 02:49:14;;;;;;;1.75;0.70;;;;;;;;;;5064004;28;20272;-67
2022/07/08 02:51:41;;;;;;;4.85;0.75;;;;;;;;;;5067042;28;20203;-67
2022/07/08 02:54:09;;;;;;;1.10;1.00;;;;;;;;;;5066196;28;20230;-67
2022/07/08 02:56:36;;;;;;;2.20;0.65;;;;;;;;;;5066118;28;20272;-66
2022/07/08 02:59:04;;;;;;;2.53;0.80;;;;;;;;;;5066781;28;20229;-67
2022/07/08 03:01:31;;;;;;;1.77;0.82;;;;;;;;;;5066143;28;20665;-66
2022/07/08 03:03:59;;;;;;;2.53;0.90;;;;;;;;;;5066339;28;20213;-67
2022/07/08 03:06:26;;;;;;;2.17;0.90;;;;;;;;;;5065535;28;20257;-67
2022/07/08 03:08:53;;;;;;;2.83;1.08;;;;;;;;;;5065584;28;20211;-66
2022/07/08 03:11:20;;;;;;;1.55;0.80;;;;;;;;;;5069161;28;20920;-67
2022/07/08 03:13:47;;;;;;;3.90;1.00;;;;;;;;;;5069757;28;20616;-67
2022/07/08 03:16:14;;;;;;;1.17;0.70;;;;;;;;;;5069571;28;20264;-66
2022/07/08 03:18:41;;;;;;;1.58;0.82;;;;;;;;;;5071303;28;20276;-66
2022/07/08 03:21:10;;;;;;;0.75;0.75;;;;;;;;;;5071303;28;20248;-66
2022/07/08 03:23:37;;;;;;;2.38;0.98;;;;;;;;;;5070872;28;20340;-66
2022/07/08 03:26:04;;;;;;;1.48;0.82;;;;;;;;;;5068984;28;20272;-66
2022/07/08 03:28:31;;;;;;;2.78;0.93;;;;;;;;;;5069513;28;20207;-66
2022/07/08 03:30:58;;;;;;;1.40;0.85;;;;;;;;;;5069136;28;20215;-66
2022/07/08 03:33:25;;;;;;;0.68;0.68;;;;;;;;;;5069423;28;20268;-66
2022/07/08 03:35:52;;;;;;;1.90;0.70;;;;;;;;;;5068835;28;20199;-66
2022/07/08 03:38:21;;;;;;;2.60;0.80;;;;;;;;;;5068523;28;20223;-66
2022/07/08 03:43:33;;;;;;;2.40;0.70;;;;;;;;;;5069559;28;20198;-66
2022/07/08 03:46:00;;;;;;;1.33;0.70;;;;;;;;;;5068465;28;20292;-66
2022/07/08 03:48:27;;;;;;;3.30;0.68;;;;;;;;;;5071224;28;20617;-66
2022/07/08 03:50:54;;;;;;;1.70;0.88;;;;;;;;;;5069102;28;20229;-66
2022/07/08 03:53:22;;;;;;;6.18;0.95;;;;;;;;;;5068918;28;20756;-66
2022/07/08 03:55:49;;;;;;;1.25;0.73;;;;;;;;;;5069580;28;20227;-66
2022/07/08 03:58:16;;;;;;;1.52;0.90;;;;;;;;;;5068161;28;20226;-66
2022/07/08 04:00:43;;;;;;;2.38;0.73;;;;;;;;;;5068676;28;20696;-66
2022/07/08 04:03:10;;;;;;;2.15;1.10;;;;;;;;;;5069874;28;20191;-66
2022/07/08 04:05:38;;;;;;;1.92;0.93;;;;;;;;;;5069837;28;20207;-66
2022/07/08 04:08:05;;;;;;;2.63;1.25;;;;;;;;;;5070124;28;20684;-66
2022/07/08 04:10:33;;;;;;;5.93;1.35;;;;;;;;;;5069160;28;20268;-66
2022/07/08 04:13:00;;;;;;;2.55;1.05;;;;;;;;;;5070370;28;20210;-66
2022/07/08 04:15:27;;;;;;;3.53;1.25;;;;;;;;;;5069131;28;20199;-65
2022/07/08 04:17:54;;;;;;;1.00;1.00;;;;;;;;;;5069798;28;20291;-66
2022/07/08 04:20:21;;;;;;;0.90;0.90;;;;;;;;;;5068879;28;20202;-65
2022/07/08 04:22:48;;;;;;;1.05;0.90;;;;;;;;;;5068369;28;20614;-66
2022/07/08 04:25:15;;;;;;;2.15;1.02;;;;;;;;;;5070122;28;20207;-64
2022/07/08 04:27:44;;;;;;;1.00;1.00;;;;;;;;;;5069994;28;20230;-64
2022/07/08 04:30:11;;;;;;;2.03;1.00;;;;;;;;;;5069561;28;20217;-66
2022/07/08 04:32:38;;;;;;;3.10;1.10;;;;;;;;;;5069980;28;20260;-66
2022/07/08 04:35:06;;;;;;;3.03;0.95;;;;;;;;;;5069485;28;20203;-67
2022/07/08 04:37:33;;;;;;;2.08;0.85;;;;;;;;;;5069154;28;20276;-66
2022/07/08 04:40:00;;;;;;;2.17;0.70;;;;;;;;;;5069497;28;20252;-66
2022/07/08 04:42:26;;;;;;;3.55;1.10;;;;;;;;;;5069297;28;20203;-64
2022/07/08 04:44:55;;;;;;;1.00;0.88;;;;;;;;;;5068857;28;20243;-64
2022/07/08 04:47:22;;;;;;;2.22;0.80;;;;;;;;;;5069349;28;20195;-64
2022/07/08 04:49:49;;;;;;;2.90;1.00;;;;;;;;;;5066219;28;20204;-65
2022/07/08 04:52:16;;;;;;;0.68;0.68;;;;;;;;;;5069492;28;20215;-63
2022/07/08 04:54:43;;;;;;;1.15;0.75;;;;;;;;;;5068770;28;20241;-64
2022/07/08 04:57:10;;;;;;;1.77;0.80;;;;;;;;;;5069047;28;20296;-67
2022/07/08 04:59:37;;;;;;;1.98;0.90;;;;;;;;;;5068583;28;20698;-65
2022/07/08 05:02:06;;;;;;;0.80;0.80;;;;;;;;;;5069330;28;20207;-66
2022/07/08 05:04:33;;;;;;;2.92;0.93;;;;;;;;;;5068285;28;20203;-66
2022/07/08 05:07:00;;;;;;;1.80;0.77;;;;;;;;;;5069013;28;20595;-66
2022/07/08 05:09:27;;;;;;;1.38;0.77;;;;;;;;;;5068322;28;20207;-66
2022/07/08 05:11:54;;;;;;;2.00;0.90;;;;;;;;;;5067518;28;21789;-66
2022/07/08 05:14:21;;;;;;;1.05;0.50;;;;;;;;;;5067803;28;20214;-66
2022/07/08 05:16:48;;;;;;;4.03;0.90;;;;;;;;;;5066840;28;20234;-65
2022/07/08 05:19:17;;;;;;;1.95;0.70;;;;;;;;;;5066288;28;20241;-66
2022/07/08 05:21:44;;;;;;;0.73;0.73;;;;;;;;;;5067504;28;20204;-66
2022/07/08 05:24:11;;;;;;;2.53;0.85;;;;;;;;;;5068477;28;20207;-66
2022/07/08 05:26:38;;;;;;;2.22;0.85;;;;;;;;;;5067240;28;20432;-66
2022/07/08 05:29:05;;;;;;;1.52;1.00;;;;;;;;;;5068185;28;20198;-66
2022/07/08 05:31:32;;;;;;;1.00;0.63;;;;;;;;;;5068470;28;20222;-67
2022/07/08 05:33:59;;;;;;;1.15;0.75;;;;;;;;;;5067710;28;20257;-67
2022/07/08 05:36:27;;;;;;;0.95;0.90;;;;;;;;;;5067630;28;20211;-64
2022/07/08 05:38:54;;;;;;;0.65;0.50;;;;;;;;;;5066391;28;20218;-64
2022/07/08 05:41:21;;;;;;;1.15;0.55;;;;;;;;;;5068816;28;20211;-63
2022/07/08 05:43:48;;;;;;;0.68;0.57;;;;;;;;;;5069354;28;20210;-63
2022/07/08 05:46:16;;;;;;;0.50;0.50;;;;;;;;;;5067912;28;20235;-63
2022/07/08 05:48:43;;;;;;;0.57;0.57;;;;;;;;;;5068955;28;20286;-66
2022/07/08 05:51:10;;;;;;;1.85;0.65;;;;;;;;;;5068986;28;20202;-66
2022/07/08 05:53:52;;;;;;;0.82;0.73;;;;;;;;;;5066814;28;20229;-66
2022/07/08 05:56:19;;;;;;;3.50;0.82;;;;;;;;;;5068958;28;20207;-66
2022/07/08 05:58:46;;;;;;;2.10;0.60;;;;;;;;;;5068969;28;20665;-65
2022/07/08 06:01:13;;;;;;;0.70;0.40;;;;;;;;;;5068137;28;20219;-66
2022/07/08 06:03:40;;;;;;;0.50;0.50;;;;;;;;;;5069254;28;20767;-66
2022/07/08 06:06:07;;;;;;;0.65;0.65;;;;;;;;;;5068884;28;20206;-67
2022/07/08 06:08:34;;;;;;;0.30;0.30;;;;;;;;;;5068635;28;20203;-66
2022/07/08 06:11:04;;;;;;;1.30;0.60;;;;;;;;;;5067790;28;20727;-67
2022/07/08 06:13:31;;;;;;;0.40;0.40;;;;;;;;;;5068782;28;20300;-66
2022/07/08 06:16:25;;;;;;;0.75;0.45;;;;;;;;;;5068814;28;20668;-64
2022/07/08 06:18:52;;;;;;;2.17;0.73;;;;;;;;;;5029070;28;20246;-66
2022/07/08 06:21:19;;;;;;;1.92;0.45;;;;;;;;;;5068404;28;20203;-66
2022/07/08 06:23:47;;;;;;;1.15;0.52;;;;;;;;;;5068001;28;20207;-65
2022/07/08 06:26:17;;;;;;;1.30;0.63;;;;;;;;;;5068163;28;20199;-67
2022/07/08 06:28:44;;;;;;;0.40;0.40;;;;;;;;;;5068262;28;20195;-64
2022/07/08 06:31:11;;;;;;;0.57;0.45;;;;;;;;;;5068464;28;20203;-64
2022/07/08 06:33:38;;;;;;;1.60;0.57;;;;;;;;;;5067996;28;20203;-65
2022/07/08 06:36:05;;;;;;;0.40;0.40;;;;;;;;;;5068480;28;20328;-63
2022/07/08 06:38:33;;;;;;;0.40;0.40;;;;;;;;;;5068507;28;20226;-64
2022/07/08 06:41:00;;;;;;;0.85;0.60;;;;;;;;;;5068339;28;20614;-64
2022/07/08 06:43:28;;;;;;;1.15;0.70;;;;;;;;;;5067513;28;20203;-67
2022/07/08 06:45:55;;;;;;;1.08;0.50;;;;;;;;;;5069740;28;20809;-65
2022/07/08 06:48:22;;;;;;;0.93;0.40;;;;;;;;;;5088016;28;20276;-66
2022/07/08 06:50:50;;;;;;;1.15;0.50;;;;;;;;;;5073672;28;20672;-66
2022/07/08 06:53:17;;;;;;;1.75;0.40;;;;;;;;;;5071932;28;20215;-67
2022/07/08 06:55:44;;;;;;;2.13;0.50;;;;;;;;;;5071291;28;20647;-65
2022/07/08 06:58:11;;;;;;;1.38;0.80;;;;;;;;;;5072026;28;20300;-66
2022/07/08 07:00:39;;;;;;;0.38;0.30;;;;;;;;;;5072221;28;20233;-66
2022/07/08 07:03:06;;;;;;;1.60;0.50;;;;;;;;;;5089402;28;20206;-66
2022/07/08 07:05:33;;;;;;;1.25;0.57;;;;;;;;;;5092027;28;20210;-66
2022/07/08 07:08:00;;;;;;;0.65;0.35;;;;;;;;;;5091619;28;20214;-65
2022/07/08 07:10:27;;;;;;;2.08;0.85;;;;;;;;;;5091557;28;20227;-66
2022/07/08 07:12:54;;;;;;;1.27;0.40;;;;;;;;;;5091709;28;20206;-65
2022/07/08 07:15:21;;;;;;;1.15;0.30;;;;;;;;;;5091563;28;20214;-66
2022/07/08 07:17:50;;;;;;;0.80;0.40;;;;;;;;;;5071032;28;20207;-66
2022/07/08 07:20:17;;;;;;;2.40;0.60;;;;;;;;;;5071350;28;20214;-65
2022/07/08 07:22:44;;;;;;;1.10;0.57;;;;;;;;;;5071135;28;20598;-64
2022/07/08 07:25:11;;;;;;;0.50;0.50;;;;;;;;;;5070703;28;20215;-65
2022/07/08 07:27:38;;;;;;;3.25;0.77;;;;;;;;;;5070693;28;20221;-64
2022/07/08 07:30:06;;;;;;;2.45;0.45;;;;;;;;;;5070898;28;20211;-64
2022/07/08 07:32:33;;;;;;;0.95;0.40;;;;;;;;;;5071084;28;20695;-64
2022/07/08 07:35:01;;;;;;;0.55;0.40;;;;;;;;;;5071166;28;20215;-65
2022/07/08 07:37:28;;;;;;;1.10;0.57;;;;;;;;;;5070861;28;20241;-68
2022/07/08 07:39:55;;;;;;;0.47;0.40;;;;;;;;;;5089901;28;20294;-65
2022/07/08 07:42:23;;;;;;;0.35;0.30;;;;;;;;;;5090858;28;20269;-65
2022/07/08 07:44:50;;;;;;;1.23;0.50;;;;;;;;;;5090867;28;20236;-66
2022/07/08 07:47:17;;;;;;;1.77;0.52;;;;;;;;;;5091140;28;20218;-67
2022/07/08 07:49:44;;;;;;;1.45;0.60;;;;;;;;;;5090987;28;20217;-66
2022/07/08 07:52:12;;;;;;;1.45;0.63;;;;;;;;;;5090566;28;20211;-67
2022/07/08 07:54:39;;;;;;;2.90;0.50;;;;;;;;;;5090941;28;20227;-66
2022/07/08 07:57:06;;;;;;;0.70;0.50;;;;;;;;;;5090402;28;20218;-70
2022/07/08 07:59:33;;;;;;;1.45;0.43;;;;;;;;;;5090892;28;20641;-65
2022/07/08 08:02:00;;;;;;;0.65;0.40;;;;;;;;;;5075011;28;20233;-65
2022/07/08 08:04:27;;;;;;;1.08;0.60;;;;;;;;;;5068495;28;20555;-65
2022/07/08 08:06:54;;;;;;;0.73;0.45;;;;;;;;;;5070482;28;20211;-67
2022/07/08 08:09:22;;;;;;;1.45;0.55;;;;;;;;;;5070324;28;20549;-66
2022/07/08 08:11:50;;;;;;;2.75;0.38;;;;;;;;;;5070220;28;20203;-67
2022/07/08 08:14:17;;;;;;;2.83;0.55;;;;;;;;;;5070294;28;20202;-68
2022/07/08 08:16:44;;;;;;;0.73;0.43;;;;;;;;;;5070259;28;20233;-69
2022/07/08 08:19:11;;;;;;;3.33;0.57;;;;;;;;;;5069695;28;20265;-68
2022/07/08 08:21:38;;;;;;;1.20;0.60;;;;;;;;;;5070195;28;20283;-65
2022/07/08 08:24:05;;;;;;;0.40;0.40;;;;;;;;;;5069914;28;20260;-65
2022/07/08 08:26:34;;;;;;;1.08;0.50;;;;;;;;;;5070484;28;20210;-65
2022/07/08 08:29:01;;;;;;;0.95;0.52;;;;;;;;;;5070087;28;20206;-65
2022/07/08 08:31:28;;;;;;;0.50;0.40;;;;;;;;;;5069596;28;20207;-65
2022/07/08 08:33:55;;;;;;;2.63;0.60;;;;;;;;;;5069851;28;20222;-69
2022/07/08 08:36:23;;;;;;;0.60;0.60;;;;;;;;;;5069756;28;20207;-68
2022/07/08 08:38:50;;;;;;;0.70;0.70;;;;;;;;;;5069588;28;20265;-69
2022/07/08 08:41:17;;;;;;;1.55;0.50;;;;;;;;;;5069345;28;20306;-68
2022/07/08 08:43:46;;;;;;;0.95;0.55;;;;;;;;;;5067398;28;20214;-68
2022/07/08 08:46:13;;;;;;;2.17;0.68;;;;;;;;;;5069771;28;20238;-72
2022/07/08 08:48:40;;;;;;;2.55;0.68;;;;;;;;;;5068034;28;20199;-68
2022/07/08 08:54:07;;;;;;;1.42;0.47;;;;;;;;;;5056738;28;20372;-68
2022/07/08 08:56:34;;;;;;;0.40;0.40;;;;;;;;;;5069314;28;20207;-68
2022/07/08 08:59:03;;;;;;;2.25;0.68;;;;;;;;;;5069151;28;20234;-67
2022/07/08 09:01:32;;;;;;;1.13;0.70;;;;;;;;;;5069118;28;20207;-68
2022/07/08 09:04:00;;;;;;;1.85;0.73;;;;;;;;;;5069334;28;20264;-70
2022/07/08 09:06:27;;;;;;;0.75;0.52;;;;;;;;;;5068997;28;20210;-70
2022/07/08 09:08:54;;;;;;;1.85;0.70;;;;;;;;;;5067974;28;20203;-69
2022/07/08 09:11:21;;;;;;;1.90;0.70;;;;;;;;;;5068584;28;20629;-68
2022/07/08 09:14:03;;;;;;;4.75;1.27;;;;;;;;;;5069157;28;20237;-68
2022/07/08 09:16:32;;;;;;;3.60;1.13;;;;;;;;;;5068491;28;20688;-69
2022/07/08 09:19:12;;;;;;;2.33;0.73;;;;;;;;;;5068529;28;20223;-68
2022/07/08 09:21:39;;;;;;;1.40;1.00;;;;;;;;;;5068767;28;20298;-68
2022/07/08 09:24:17;;;;;;;1.75;0.75;;;;;;;;;;5068513;28;20699;-71
2022/07/08 09:26:44;;;;;;;3.03;1.00;;;;;;;;;;5068768;28;20210;-68
2022/07/08 09:29:11;;;;;;;1.40;0.73;;;;;;;;;;5068789;28;20207;-68
2022/07/08 09:31:40;;;;;;;2.40;0.60;;;;;;;;;;5068183;28;20219;-68
2022/07/08 09:34:11;;;;;;;0.50;0.50;;;;;;;;;;5068530;28;20218;-68
2022/07/08 09:36:47;;;;;;;0.88;0.60;;;;;;;;;;5068551;28;20202;-69
2022/07/08 09:39:32;;;;;;;1.58;0.50;;;;;;;;;;5068498;28;20230;-69
2022/07/08 09:41:59;;;;;;;0.70;0.60;;;;;;;;;;5068404;28;20237;-69
2022/07/08 09:44:26;;;;;;;0.50;0.45;;;;;;;;;;5068030;28;20210;-70
2022/07/08 09:46:54;;;;;;;0.90;0.70;;;;;;;;;;5068121;28;20203;-68
2022/07/08 09:49:28;;;;;;;5.68;0.73;;;;;;;;;;5068272;28;20210;-69
2022/07/08 09:51:55;;;;;;;0.60;0.60;;;;;;;;;;5068158;28;20779;-68
2022/07/08 09:54:23;;;;;;;1.48;0.50;;;;;;;;;;5067837;28;20268;-69
2022/07/08 09:56:58;;;;;;;0.60;0.60;;;;;;;;;;5068059;28;20625;-69
2022/07/08 09:59:25;;;;;;;0.60;0.60;;;;;;;;;;5068019;28;20482;-69
2022/07/08 10:01:53;;;;;;;0.90;0.85;;;;;;;;;;5067998;28;20222;-69
2022/07/08 10:04:23;;;;;;;0.60;0.60;;;;;;;;;;5068081;28;20621;-69
2022/07/08 10:06:51;;;;;;;0.63;0.50;;;;;;;;;;5067892;28;20238;-71
2022/07/08 10:09:18;;;;;;;0.57;0.57;;;;;;;;;;5067898;28;20294;-68
2022/07/08 10:11:45;;;;;;;1.15;0.57;;;;;;;;;;5067921;28;20203;-67
2022/07/08 10:14:12;;;;;;;1.92;0.60;;;;;;;;;;5067909;28;20207;-68
2022/07/08 10:16:40;;;;;;;3.58;0.70;;;;;;;;;;5067754;28;20508;-68
2022/07/08 10:19:10;;;;;;;0.70;0.47;;;;;;;;;;5066387;28;20637;-68
2022/07/08 10:21:39;;;;;;;4.93;1.83;;;;;;;;;;5067380;28;20248;-68
2022/07/08 10:24:08;;;;;;;2.03;0.63;;;;;;;;;;5079107;28;20210;-68
2022/07/08 10:26:38;;;;;;;1.70;0.70;;;;;;;;;;5088477;28;20248;-68
2022/07/08 10:29:05;;;;;;;0.43;0.43;;;;;;;;;;5082902;28;20290;-68
2022/07/08 10:31:42;;;;;;;1.67;0.70;;;;;;;;;;5068685;28;20211;-69
2022/07/08 10:34:09;;;;;;;1.65;0.68;;;;;;;;;;5068025;28;20711;-68
2022/07/08 10:36:46;;;;;;;1.33;1.02;;;;;;;;;;5068245;28;20219;-60
2022/07/08 10:39:14;;;;;;;0.70;0.70;;;;;;;;;;5067669;28;20217;-63
2022/07/08 10:41:41;;;;;;;0.65;0.65;;;;;;;;;;5066358;28;20303;-68
2022/07/08 10:44:08;;;;;;;2.15;0.77;;;;;;;;;;5071819;28;20202;-68
2022/07/08 10:46:35;;;;;;;0.65;0.65;;;;;;;;;;5067488;28;20338;-69
2022/07/08 10:49:03;;;;;;;1.42;0.75;;;;;;;;;;5071006;28;20263;-66
2022/07/08 10:51:56;;;;;;;1.80;0.60;;;;;;;;;;5083132;28;20211;-67
2022/07/08 10:54:36;;;;;;;2.17;0.60;;;;;;;;;;5067841;28;20325;-68
2022/07/08 10:57:07;;;;;;;1.38;0.60;;;;;;;;;;5061474;28;20210;-68
2022/07/08 10:59:35;;;;;;;0.95;0.60;;;;;;;;;;5066700;28;20235;-67
2022/07/08 11:02:03;;;;;;;2.58;0.93;;;;;;;;;;5068462;28;20741;-67
2022/07/08 11:04:32;;;;;;;4.03;0.73;;;;;;;;;;5067664;28;20207;-67
2022/07/08 11:07:20;;;;;;;2.25;0.85;;;;;;;;;;5067779;28;20242;-68
2022/07/08 11:09:50;;;;;;;0.82;0.82;;;;;;;;;;5066713;28;20194;-67
2022/07/08 11:12:19;;;;;;;1.58;0.80;;;;;;;;;;5069100;28;20295;-68
2022/07/08 11:14:47;;;;;;;0.80;0.50;;;;;;;;;;5067758;28;20322;-68
2022/07/08 11:17:15;;;;;;;0.63;0.63;;;;;;;;;;5067365;28;20719;-67
2022/07/08 11:19:42;;;;;;;1.00;0.60;;;;;;;;;;5067220;28;20258;-67
2022/07/08 11:22:10;;;;;;;1.27;0.73;;;;;;;;;;5067389;28;20230;-66
2022/07/08 11:24:37;;;;;;;0.73;0.73;;;;;;;;;;5067355;28;20211;-67
2022/07/08 11:27:06;;;;;;;2.33;0.80;;;;;;;;;;5084796;28;20276;-67
2022/07/08 11:29:33;;;;;;;0.70;0.70;;;;;;;;;;5087433;28;20547;-69
2022/07/08 11:32:01;;;;;;;0.73;0.60;;;;;;;;;;5074542;28;20207;-68
2022/07/08 11:34:28;;;;;;;2.70;1.10;;;;;;;;;;5070960;28;20265;-68
2022/07/08 11:36:56;;;;;;;0.95;0.85;;;;;;;;;;5071330;28;20891;-68
2022/07/08 11:39:23;;;;;;;0.80;0.80;;;;;;;;;;5088650;28;20208;-67
2022/07/08 11:41:50;;;;;;;0.98;0.82;;;;;;;;;;5086093;28;20571;-68
2022/07/08 11:44:20;;;;;;;1.85;0.73;;;;;;;;;;5071156;28;20214;-68
2022/07/08 11:46:47;;;;;;;1.30;0.90;;;;;;;;;;5070963;28;20241;-70
2022/07/08 11:49:15;;;;;;;1.38;0.70;;;;;;;;;;5070990;28;20221;-68
2022/07/08 11:51:46;;;;;;;1.13;0.80;;;;;;;;;;5070351;28;20680;-65
2022/07/08 11:54:13;;;;;;;2.05;0.93;;;;;;;;;;5070473;28;20321;-64
2022/07/08 11:56:40;;;;;;;0.98;0.90;;;;;;;;;;5081698;28;20242;-69
2022/07/08 11:59:07;;;;;;;1.40;1.02;;;;;;;;;;5070795;28;20218;-65
2022/07/08 12:01:36;;;;;;;1.95;0.80;;;;;;;;;;5070540;28;20280;-64
2022/07/08 12:04:05;;;;;;;2.13;0.88;;;;;;;;;;5070713;28;20239;-66
2022/07/08 12:06:32;;;;;;;0.70;0.70;;;;;;;;;;5078583;28;20284;-65
2022/07/08 12:08:59;;;;;;;5.32;0.85;;;;;;;;;;5070344;28;20211;-66
2022/07/08 12:11:26;;;;;;;1.02;0.80;;;;;;;;;;5070392;28;20223;-65
2022/07/08 12:13:54;;;;;;;0.85;0.82;;;;;;;;;;5070396;28;20904;-66
2022/07/08 12:16:29;;;;;;;1.52;0.90;;;;;;;;;;5070375;28;20272;-65
2022/07/08 12:18:57;;;;;;;0.75;0.75;;;;;;;;;;5069998;28;20309;-65
2022/07/08 12:21:24;;;;;;;0.95;0.70;;;;;;;;;;5070050;28;20231;-65
2022/07/08 12:23:58;;;;;;;3.20;0.70;;;;;;;;;;5070079;28;20655;-67
2022/07/08 12:26:25;;;;;;;0.95;0.77;;;;;;;;;;5070120;28;20211;-69
2022/07/08 12:28:52;;;;;;;2.72;0.98;;;;;;;;;;5085052;28;20256;-66
2022/07/08 12:31:32;;;;;;;1.77;0.70;;;;;;;;;;5079692;28;20211;-66
2022/07/08 12:34:04;;;;;;;1.23;0.85;;;;;;;;;;5069789;28;20616;-66
2022/07/08 12:36:31;;;;;;;1.92;0.90;;;;;;;;;;5070040;28;20746;-65
2022/07/08 12:38:58;;;;;;;2.20;1.05;;;;;;;;;;5069989;28;20211;-65
2022/07/08 12:41:25;;;;;;;0.70;0.70;;;;;;;;;;5069026;28;20288;-64
2022/07/08 12:43:52;;;;;;;1.05;0.70;;;;;;;;;;5068570;28;20673;-64
2022/07/08 12:46:19;;;;;;;0.95;0.70;;;;;;;;;;5069925;28;20239;-65
2022/07/08 12:48:47;;;;;;;0.60;0.60;;;;;;;;;;5069498;28;20210;-63
2022/07/08 12:51:15;;;;;;;1.10;0.75;;;;;;;;;;5067494;28;20214;-62
2022/07/08 12:53:42;;;;;;;1.77;0.75;;;;;;;;;;5068866;28;20620;-63
2022/07/08 12:56:09;;;;;;;1.00;0.98;;;;;;;;;;5067841;28;20223;-62
2022/07/08 12:58:36;;;;;;;0.68;0.68;;;;;;;;;;5068720;28;20210;-63
2022/07/08 13:01:03;;;;;;;0.60;0.60;;;;;;;;;;5069787;28;20235;-64
2022/07/08 13:03:30;;;;;;;1.10;0.50;;;;;;;;;;5082831;28;20211;-63
2022/07/08 13:05:57;;;;;;;0.60;0.60;;;;;;;;;;5069541;28;20260;-63
2022/07/08 13:08:25;;;;;;;0.90;0.77;;;;;;;;;;5067614;28;20829;-63
2022/07/08 13:10:52;;;;;;;0.93;0.60;;;;;;;;;;5068074;28;20198;-64
2022/07/08 13:13:20;;;;;;;0.63;0.63;;;;;;;;;;5072314;28;20815;-63
2022/07/08 13:15:47;;;;;;;0.73;0.70;;;;;;;;;;5069152;28;20215;-64
2022/07/08 13:18:14;;;;;;;1.00;0.95;;;;;;;;;;5068308;28;20207;-66
2022/07/08 13:20:41;;;;;;;0.60;0.60;;;;;;;;;;5073135;28;20231;-66
2022/07/08 13:23:08;;;;;;;0.77;0.57;;;;;;;;;;5069349;28;20218;-67
2022/07/08 13:25:37;;;;;;;3.83;1.05;;;;;;;;;;5069123;28;20229;-67
2022/07/08 13:28:04;;;;;;;1.20;0.77;;;;;;;;;;5069387;28;20269;-67
2022/07/08 13:30:31;;;;;;;1.05;1.05;;;;;;;;;;5072973;28;20214;-66
2022/07/08 13:32:58;;;;;;;0.57;0.52;;;;;;;;;;5069108;28;20199;-64
2022/07/08 13:35:25;;;;;;;0.75;0.75;;;;;;;;;;5069205;28;20229;-66
2022/07/08 13:37:52;;;;;;;0.70;0.70;;;;;;;;;;5068905;28;20561;-64
2022/07/08 13:40:19;;;;;;;1.55;1.08;;;;;;;;;;5063518;28;20238;-65
2022/07/08 13:42:48;;;;;;;0.88;0.88;;;;;;;;;;5064352;28;20260;-65
2022/07/08 13:45:15;;;;;;;0.85;0.73;;;;;;;;;;5065058;28;20663;-64
2022/07/08 13:47:42;;;;;;;2.30;0.85;;;;;;;;;;5065122;28;20214;-65
2022/07/08 13:50:09;;;;;;;0.60;0.60;;;;;;;;;;5064337;28;20214;-64
2022/07/08 13:52:36;;;;;;;0.60;0.60;;;;;;;;;;5064939;28;20996;-66
2022/07/08 13:55:04;;;;;;;0.70;0.70;;;;;;;;;;5064933;28;20234;-65
2022/07/08 13:57:31;;;;;;;0.82;0.65;;;;;;;;;;5072766;28;20280;-65
2022/07/08 14:00:00;;;;;;;0.70;0.70;;;;;;;;;;5067469;28;20743;-65
2022/07/08 14:02:27;;;;;;;1.17;0.95;;;;;;;;;;5064212;28;20211;-65
2022/07/08 14:04:54;;;;;;;3.00;0.90;;;;;;;;;;5064610;28;20236;-66
2022/07/08 14:07:21;;;;;;;0.90;0.77;;;;;;;;;;5063123;28;20209;-65
2022/07/08 14:09:48;;;;;;;0.90;0.70;;;;;;;;;;5061243;28;20207;-65
2022/07/08 14:12:18;;;;;;;0.70;0.70;;;;;;;;;;5063703;28;20195;-71
2022/07/08 14:14:45;;;;;;;0.68;0.60;;;;;;;;;;5064567;28;20692;-67
2022/07/08 14:17:14;;;;;;;0.80;0.80;;;;;;;;;;5072397;28;20224;-66
2022/07/08 14:19:41;;;;;;;0.65;0.65;;;;;;;;;;5064642;28;20253;-66
2022/07/08 14:22:08;;;;;;;1.70;0.93;;;;;;;;;;5063664;28;20335;-66
2022/07/08 14:24:35;;;;;;;2.00;0.90;;;;;;;;;;5063842;28;20236;-66
2022/07/08 14:27:02;;;;;;;0.90;0.90;;;;;;;;;;5064281;28;20211;-67
2022/07/08 14:29:30;;;;;;;1.50;0.80;;;;;;;;;;5064465;28;20681;-66
2022/07/08 14:31:57;;;;;;;1.98;1.77;;;;;;;;;;5063808;28;20203;-66
2022/07/08 14:34:26;;;;;;;1.90;0.70;;;;;;;;;;5064019;28;20223;-65
2022/07/08 14:36:53;;;;;;;0.63;0.63;;;;;;;;;;5063778;28;20914;-65
2022/07/08 14:39:20;;;;;;;0.80;0.80;;;;;;;;;;5056840;28;20733;-65
2022/07/08 14:41:47;;;;;;;1.33;0.77;;;;;;;;;;5064560;28;20293;-65
2022/07/08 14:44:14;;;;;;;1.48;1.00;;;;;;;;;;5064355;28;20665;-66
2022/07/08 14:46:41;;;;;;;1.30;0.93;;;;;;;;;;5064586;28;20246;-65
2022/07/08 14:49:08;;;;;;;1.70;1.00;;;;;;;;;;5063639;28;20272;-67
2022/07/08 14:51:36;;;;;;;0.73;0.70;;;;;;;;;;5064777;28;20203;-66
2022/07/08 14:54:03;;;;;;;2.20;0.88;;;;;;;;;;5064184;28;20569;-66